Time;durP1;ratioP1;P1;durP2;ratioP2;P2;SDS_P1;SDS_P2;PMS_P1;PMS_P2;Temp;Humidity;BMP_temperature;BMP_pressure;BME280_temperature;BME280_humidity;BME280_pressure;Samples;Min_cycle;Max_cycle;Signal;HPM_P1;HPM_P2
2023/03/24 00:01:16;;;;;;;9.07;3.33;;;12.10;99.90;;;;;;5073074;28;20051;-70
2023/03/24 00:03:47;;;;;;;6.93;2.70;;;12.10;99.90;;;;;;5069037;28;20496;-71
2023/03/24 00:06:13;;;;;;;6.07;2.30;;;12.10;99.90;;;;;;5056864;28;20375;-71
2023/03/24 00:08:42;;;;;;;8.73;3.20;;;12.20;99.90;;;;;;5052877;28;20052;-71
2023/03/24 00:11:12;;;;;;;10.35;3.60;;;12.10;99.90;;;;;;5036607;28;20047;-71
2023/03/24 00:13:39;;;;;;;8.13;2.85;;;12.10;99.90;;;;;;5065541;28;20119;-71
2023/03/24 00:16:11;;;;;;;8.68;3.40;;;12.10;99.90;;;;;;5053025;28;20036;-71
2023/03/24 00:18:38;;;;;;;7.63;3.30;;;12.10;99.90;;;;;;5036184;28;20045;-70
2023/03/24 00:21:06;;;;;;;9.88;3.92;;;12.10;99.90;;;;;;5044432;28;20455;-71
2023/03/24 00:23:33;;;;;;;8.60;3.42;;;12.10;99.90;;;;;;5054710;28;20036;-70
2023/03/24 00:26:03;;;;;;;9.00;3.22;;;12.00;99.90;;;;;;5053714;28;20570;-71
2023/03/24 00:28:32;;;;;;;10.65;3.60;;;12.00;99.90;;;;;;5071931;28;20040;-71
2023/03/24 00:30:59;;;;;;;8.35;3.40;;;12.00;99.90;;;;;;5051806;28;20040;-71
2023/03/24 00:33:24;;;;;;;8.68;3.80;;;12.00;99.90;;;;;;5035648;28;20135;-70
2023/03/24 00:35:50;;;;;;;8.27;2.97;;;12.00;99.90;;;;;;5052233;28;20120;-72
2023/03/24 00:38:16;;;;;;;9.38;3.28;;;12.10;99.90;;;;;;5052528;28;20036;-71
2023/03/24 00:40:47;;;;;;;6.97;3.20;;;12.10;99.90;;;;;;5051988;28;20520;-71
2023/03/24 00:43:13;;;;;;;10.02;3.30;;;12.00;99.90;;;;;;5055726;28;20044;-72
2023/03/24 00:45:45;;;;;;;8.70;3.30;;;12.00;99.90;;;;;;5055686;28;20047;-71
2023/03/24 00:48:16;;;;;;;7.20;2.72;;;12.00;99.90;;;;;;5052583;28;20424;-70
2023/03/24 00:50:50;;;;;;;7.63;2.95;;;12.00;99.90;;;;;;5050795;28;20455;-71
2023/03/24 00:53:17;;;;;;;7.82;3.15;;;12.00;99.90;;;;;;5048949;28;20040;-71
2023/03/24 00:55:46;;;;;;;10.02;3.45;;;12.00;99.90;;;;;;5053626;28;20045;-71
2023/03/24 00:58:22;;;;;;;9.02;3.20;;;12.10;99.90;;;;;;5072161;28;20081;-71
2023/03/24 01:00:51;;;;;;;6.90;2.72;;;12.00;99.90;;;;;;5065297;28;20086;-71
2023/03/24 01:03:20;;;;;;;7.15;3.08;;;12.00;99.90;;;;;;5052067;28;20037;-71
2023/03/24 01:05:47;;;;;;;8.23;3.03;;;12.00;99.90;;;;;;5067367;28;20036;-71
2023/03/24 01:08:19;;;;;;;10.15;3.60;;;12.00;99.90;;;;;;5055640;28;20386;-71
2023/03/24 01:10:54;;;;;;;6.10;2.95;;;12.00;99.90;;;;;;5054694;28;20036;-71
2023/03/24 01:13:28;;;;;;;6.43;2.97;;;12.00;99.90;;;;;;5055505;28;20385;-71
2023/03/24 01:15:54;;;;;;;6.78;2.67;;;12.00;99.90;;;;;;5054523;28;20047;-70
2023/03/24 01:18:22;;;;;;;7.25;2.70;;;12.10;99.90;;;;;;5055241;28;20051;-71
2023/03/24 01:20:48;;;;;;;6.90;3.03;;;12.00;99.90;;;;;;5065345;28;20041;-70
2023/03/24 01:23:18;;;;;;;7.20;2.63;;;12.00;99.90;;;;;;5054350;28;20056;-71
2023/03/24 01:25:44;;;;;;;6.43;2.70;;;12.00;99.90;;;;;;5038698;28;20564;-70
2023/03/24 01:28:23;;;;;;;11.18;2.85;;;12.00;99.90;;;;;;5051845;28;20116;-70
2023/03/24 01:30:50;;;;;;;9.05;3.10;;;12.00;99.90;;;;;;5037697;28;20040;-70
2023/03/24 01:33:16;;;;;;;8.98;2.78;;;12.10;99.90;;;;;;5051772;28;20080;-71
2023/03/24 01:35:42;;;;;;;6.65;2.47;;;12.00;99.90;;;;;;5035195;28;20033;-71
2023/03/24 01:38:10;;;;;;;5.50;2.42;;;12.00;99.90;;;;;;5051612;28;20052;-71
2023/03/24 01:40:38;;;;;;;4.93;2.60;;;12.00;99.90;;;;;;5055072;28;20124;-71
2023/03/24 01:43:06;;;;;;;7.13;3.00;;;12.00;99.90;;;;;;5054909;28;20044;-71
2023/03/24 01:45:37;;;;;;;8.63;2.80;;;12.00;99.90;;;;;;5041036;28;20465;-70
2023/03/24 01:48:06;;;;;;;5.55;2.95;;;12.00;99.90;;;;;;5034990;28;20041;-70
2023/03/24 01:50:32;;;;;;;5.85;2.40;;;12.00;99.90;;;;;;5050467;28;20061;-71
2023/03/24 01:52:59;;;;;;;6.78;2.35;;;12.00;99.90;;;;;;5051552;28;20412;-70
2023/03/24 01:55:26;;;;;;;9.13;2.60;;;12.00;99.90;;;;;;5057709;28;20041;-70
2023/03/24 01:57:56;;;;;;;6.97;2.88;;;12.00;99.90;;;;;;5051681;28;20509;-71
2023/03/24 02:00:21;;;;;;;5.78;2.30;;;12.00;99.90;;;;;;5054010;28;20048;-70
2023/03/24 02:02:53;;;;;;;6.03;2.42;;;12.00;99.90;;;;;;5059023;28;20044;-70
2023/03/24 02:05:23;;;;;;;6.35;2.40;;;12.00;99.90;;;;;;5057720;28;20044;-70
2023/03/24 02:07:54;;;;;;;7.20;2.53;;;12.00;99.90;;;;;;5058759;28;20046;-71
2023/03/24 02:10:22;;;;;;;6.93;2.30;;;12.00;99.90;;;;;;5057709;28;20039;-70
2023/03/24 02:12:47;;;;;;;8.02;2.85;;;12.00;99.90;;;;;;5072994;28;20050;-71
2023/03/24 02:15:16;;;;;;;7.32;2.50;;;12.00;99.90;;;;;;5055046;28;20074;-70
2023/03/24 02:17:59;;;;;;;5.50;2.20;;;12.10;99.90;;;;;;5038285;28;20365;-70
2023/03/24 02:21:04;;;;;;;4.28;2.40;;;12.20;99.90;;;;;;5044145;28;20068;-71
2023/03/24 02:24:07;;;;;;;5.97;2.40;;;12.20;99.90;;;;;;5066403;28;20037;-70
2023/03/24 02:26:44;;;;;;;6.07;2.40;;;12.10;99.90;;;;;;5038231;28;20047;-70
2023/03/24 02:29:28;;;;;;;6.78;2.67;;;12.10;99.90;;;;;;5054971;28;20037;-70
2023/03/24 02:32:12;;;;;;;5.65;2.60;;;12.20;99.90;;;;;;5038790;28;20124;-70
2023/03/24 02:35:05;;;;;;;6.22;2.40;;;12.20;99.90;;;;;;5038267;28;20056;-71
2023/03/24 02:38:17;;;;;;;7.93;2.65;;;12.20;99.90;;;;;;5071331;28;20094;-71
2023/03/24 02:41:03;;;;;;;7.40;2.78;;;12.20;99.90;;;;;;5094370;28;20462;-71
2023/03/24 02:43:59;;;;;;;7.88;2.72;;;12.10;99.90;;;;;;5029984;28;20434;-70
2023/03/24 02:46:35;;;;;;;6.20;2.78;;;12.20;99.90;;;;;;5054640;28;20040;-70
2023/03/24 02:49:30;;;;;;;6.10;2.75;;;12.20;99.90;;;;;;5070693;28;20444;-71
2023/03/24 02:52:09;;;;;;;6.07;2.65;;;12.10;99.90;;;;;;5082628;28;20118;-71
2023/03/24 02:55:00;;;;;;;6.22;2.88;;;12.20;99.90;;;;;;5053553;28;20124;-70
2023/03/24 02:57:32;;;;;;;5.80;2.72;;;12.20;99.90;;;;;;5054536;28;20053;-71
2023/03/24 03:00:16;;;;;;;5.43;2.72;;;12.20;99.90;;;;;;5054303;28;20037;-70
2023/03/24 03:02:50;;;;;;;5.78;2.92;;;12.20;99.90;;;;;;5037975;28;20055;-71
2023/03/24 03:05:40;;;;;;;4.70;2.40;;;12.20;99.90;;;;;;5057376;28;20032;-71
2023/03/24 03:08:08;;;;;;;5.88;2.65;;;12.20;99.90;;;;;;5056210;28;20044;-71
2023/03/24 03:10:37;;;;;;;5.90;2.70;;;12.30;99.90;;;;;;5072256;28;20033;-71
2023/03/24 03:13:08;;;;;;;6.18;2.63;;;12.30;99.90;;;;;;5070422;28;20072;-72
2023/03/24 03:15:38;;;;;;;5.13;2.80;;;12.20;99.90;;;;;;5054107;28;20037;-71
2023/03/24 03:18:22;;;;;;;4.47;2.42;;;12.20;99.90;;;;;;5053842;28;20290;-71
2023/03/24 03:20:53;;;;;;;5.55;2.88;;;12.30;99.90;;;;;;5039794;28;20159;-71
2023/03/24 03:23:24;;;;;;;5.60;2.20;;;12.30;99.90;;;;;;5037329;28;20049;-71
2023/03/24 03:25:55;;;;;;;5.45;2.80;;;12.30;99.90;;;;;;5059219;28;20512;-71
2023/03/24 03:28:24;;;;;;;5.13;2.33;;;12.40;99.90;;;;;;5064217;28;20041;-71
2023/03/24 03:30:57;;;;;;;5.65;2.53;;;12.40;99.90;;;;;;5046746;28;20036;-71
2023/03/24 03:33:31;;;;;;;3.20;1.70;;;12.40;99.90;;;;;;5041931;28;20505;-71
2023/03/24 03:36:16;;;;;;;5.35;2.20;;;12.50;99.90;;;;;;5036477;28;20037;-71
2023/03/24 03:39:07;;;;;;;4.93;2.40;;;12.40;99.90;;;;;;5061380;28;20394;-71
2023/03/24 03:41:33;;;;;;;6.03;2.45;;;12.50;99.90;;;;;;5063311;28;20063;-71
2023/03/24 03:43:59;;;;;;;3.83;1.73;;;12.50;99.90;;;;;;5065891;28;20488;-71
2023/03/24 03:46:26;;;;;;;5.40;1.80;;;12.50;99.90;;;;;;5052715;28;20116;-72
2023/03/24 03:48:52;;;;;;;5.55;1.90;;;12.50;99.90;;;;;;5049726;28;20047;-71
2023/03/24 03:51:18;;;;;;;5.30;2.22;;;12.50;99.90;;;;;;5061137;28;20041;-71
2023/03/24 03:53:57;;;;;;;6.03;2.50;;;12.00;99.90;;;;;;5055747;28;20051;-71
2023/03/24 03:56:26;;;;;;;4.88;1.90;;;11.80;99.90;;;;;;5073157;28;20115;-71
2023/03/24 03:58:52;;;;;;;4.93;2.38;;;11.60;99.90;;;;;;5066312;28;20047;-71
2023/03/24 04:01:22;;;;;;;5.70;2.15;;;11.70;99.90;;;;;;5052907;28;20049;-72
2023/03/24 04:04:20;;;;;;;5.05;2.20;;;11.60;99.90;;;;;;5062198;28;20041;-71
2023/03/24 04:07:11;;;;;;;5.82;2.30;;;11.50;99.90;;;;;;5069124;28;20037;-72
2023/03/24 04:09:48;;;;;;;7.53;2.72;;;11.40;99.90;;;;;;5052705;28;20037;-71
2023/03/24 04:12:26;;;;;;;6.43;2.05;;;11.40;99.90;;;;;;5050849;28;20037;-72
2023/03/24 04:15:18;;;;;;;6.53;2.10;;;11.40;99.90;;;;;;5052948;28;20049;-71
2023/03/24 04:17:54;;;;;;;8.52;2.15;;;11.30;99.90;;;;;;5050942;28;20051;-71
2023/03/24 04:20:37;;;;;;;6.10;1.98;;;11.20;99.90;;;;;;5056182;28;20094;-72
2023/03/24 04:23:13;;;;;;;6.70;2.03;;;11.20;99.90;;;;;;5072201;28;20068;-72
2023/03/24 04:26:00;;;;;;;8.07;2.13;;;11.10;99.90;;;;;;5071438;28;20047;-72
2023/03/24 04:29:05;;;;;;;5.43;1.90;;;11.10;99.90;;;;;;5061944;28;20044;-71
2023/03/24 04:31:33;;;;;;;8.98;1.70;;;11.10;99.90;;;;;;5072161;28;20052;-71
2023/03/24 04:34:12;;;;;;;3.45;1.27;;;11.10;99.90;;;;;;5071098;28;20044;-71
2023/03/24 04:36:53;;;;;;;5.63;1.33;;;11.10;99.90;;;;;;5071281;28;20119;-71
2023/03/24 04:39:27;;;;;;;5.60;1.50;;;11.10;99.90;;;;;;5050911;28;20060;-71
2023/03/24 04:41:58;;;;;;;4.82;1.63;;;11.00;99.90;;;;;;5064453;28;20047;-71
2023/03/24 04:44:25;;;;;;;8.50;1.70;;;11.00;99.90;;;;;;5043742;28;20072;-71
2023/03/24 04:46:55;;;;;;;7.07;1.88;;;10.80;99.90;;;;;;5061151;28;20374;-71
2023/03/24 04:49:24;;;;;;;5.68;1.60;;;10.90;99.90;;;;;;5053421;28;20044;-72
2023/03/24 04:51:50;;;;;;;10.80;2.80;;;10.90;99.90;;;;;;5037513;28;20048;-71
2023/03/24 04:54:17;;;;;;;8.30;2.10;;;10.80;99.90;;;;;;5054783;28;20040;-71
2023/03/24 04:56:46;;;;;;;9.90;1.75;;;10.80;99.90;;;;;;5050044;28;20041;-71
2023/03/24 04:59:14;;;;;;;7.88;1.58;;;10.70;99.90;;;;;;5054639;28;20116;-70
2023/03/24 05:01:40;;;;;;;10.07;1.80;;;10.70;99.90;;;;;;5051640;28;20438;-71
2023/03/24 05:04:06;;;;;;;11.15;1.92;;;10.60;99.90;;;;;;5057828;28;20504;-71
2023/03/24 05:06:32;;;;;;;9.95;1.58;;;10.60;99.90;;;;;;5087027;28;20036;-71
2023/03/24 05:08:58;;;;;;;10.35;1.88;;;10.50;99.90;;;;;;5066281;28;20435;-71
2023/03/24 05:11:26;;;;;;;8.25;1.63;;;10.50;99.90;;;;;;5058438;28;20037;-70
2023/03/24 05:13:52;;;;;;;11.15;2.13;;;10.40;99.90;;;;;;5055178;28;20044;-70
2023/03/24 05:16:18;;;;;;;9.85;2.17;;;10.40;99.90;;;;;;5051664;28;20055;-71
2023/03/24 05:18:44;;;;;;;7.75;1.77;;;10.40;99.90;;;;;;5071521;28;20040;-71
2023/03/24 05:21:09;;;;;;;6.80;1.80;;;10.60;99.90;;;;;;5070909;28;20411;-71
2023/03/24 05:23:35;;;;;;;10.93;2.63;;;10.40;99.90;;;;;;5061645;28;20044;-70
2023/03/24 05:26:01;;;;;;;11.75;1.83;;;10.30;99.90;;;;;;5061264;28;20041;-71
2023/03/24 05:28:27;;;;;;;7.95;2.03;;;10.40;99.90;;;;;;5048507;28;20387;-71
2023/03/24 05:30:52;;;;;;;8.32;1.83;;;10.40;99.90;;;;;;5044236;28;20040;-71
2023/03/24 05:33:18;;;;;;;9.25;2.13;;;10.40;99.90;;;;;;5051726;28;20090;-71
2023/03/24 05:35:44;;;;;;;11.75;2.30;;;10.40;99.90;;;;;;5051693;28;20037;-71
2023/03/24 05:38:09;;;;;;;8.25;1.90;;;10.40;99.90;;;;;;5065099;28;20431;-71
2023/03/24 05:40:36;;;;;;;10.10;1.77;;;10.40;99.90;;;;;;5065946;28;20127;-71
2023/03/24 05:43:01;;;;;;;9.18;2.08;;;10.40;99.90;;;;;;5058382;28;20040;-71
2023/03/24 05:45:28;;;;;;;9.50;2.20;;;10.40;99.90;;;;;;5055502;28;20047;-71
2023/03/24 05:47:54;;;;;;;10.00;2.00;;;10.40;99.90;;;;;;5039672;28;20033;-71
2023/03/24 05:50:20;;;;;;;9.65;2.33;;;10.40;99.90;;;;;;5058557;28;20045;-71
2023/03/24 05:52:46;;;;;;;6.07;2.00;;;10.30;99.90;;;;;;5050567;28;20705;-71
2023/03/24 05:55:14;;;;;;;13.15;2.83;;;10.40;99.90;;;;;;5074347;28;20040;-71
2023/03/24 05:57:40;;;;;;;10.20;2.20;;;10.40;99.90;;;;;;5055259;28;20068;-71
2023/03/24 06:00:10;;;;;;;4.80;1.50;;;10.50;99.90;;;;;;5046358;28;20079;-71
2023/03/24 06:02:35;;;;;;;9.20;2.50;;;10.50;99.90;;;;;;5055075;28;20048;-71
2023/03/24 06:05:01;;;;;;;16.58;2.40;;;10.50;99.90;;;;;;5053615;28;20033;-71
2023/03/24 06:07:29;;;;;;;14.00;2.58;;;10.50;99.90;;;;;;5064623;28;20511;-70
2023/03/24 06:09:56;;;;;;;9.13;2.10;;;10.40;99.90;;;;;;5053395;28;20148;-71
2023/03/24 06:12:23;;;;;;;9.93;2.05;;;10.50;99.90;;;;;;5062443;28;20039;-71
2023/03/24 06:14:48;;;;;;;10.10;1.80;;;10.30;99.90;;;;;;5062424;28;20048;-72
2023/03/24 06:17:14;;;;;;;10.13;2.15;;;10.30;99.90;;;;;;5063914;28;20045;-71
2023/03/24 06:19:48;;;;;;;5.95;2.03;;;10.40;99.90;;;;;;5052721;28;20036;-70
2023/03/24 06:22:18;;;;;;;8.68;1.65;;;10.30;99.90;;;;;;5054319;28;20163;-70
2023/03/24 06:24:44;;;;;;;10.68;2.10;;;10.40;99.90;;;;;;5060241;28;20125;-70
2023/03/24 06:27:10;;;;;;;8.13;1.67;;;10.30;99.90;;;;;;5048435;28;20076;-70
2023/03/24 06:29:36;;;;;;;10.32;1.83;;;10.30;99.90;;;;;;5064317;28;20041;-70
2023/03/24 06:32:04;;;;;;;9.13;2.50;;;10.40;99.90;;;;;;5067232;28;20099;-70
2023/03/24 06:34:31;;;;;;;8.27;1.73;;;10.60;99.90;;;;;;5065672;28;20044;-70
2023/03/24 06:36:56;;;;;;;8.95;2.30;;;10.50;99.90;;;;;;5052796;28;20505;-72
2023/03/24 06:39:22;;;;;;;7.18;1.58;;;10.50;99.90;;;;;;5054600;28;20044;-72
2023/03/24 06:41:48;;;;;;;9.23;1.67;;;10.40;99.90;;;;;;5048933;28;20123;-73
2023/03/24 06:44:14;;;;;;;10.02;1.75;;;10.50;99.90;;;;;;5059869;28;20132;-71
2023/03/24 06:46:40;;;;;;;8.05;1.65;;;10.50;99.90;;;;;;5045600;28;20069;-73
2023/03/24 06:49:06;;;;;;;6.97;1.40;;;10.60;99.90;;;;;;5049435;28;20082;-73
2023/03/24 06:51:32;;;;;;;9.40;1.83;;;10.50;99.90;;;;;;5037600;28;20060;-72
2023/03/24 06:53:57;;;;;;;11.15;1.70;;;10.60;99.90;;;;;;5041247;28;20442;-71
2023/03/24 06:56:23;;;;;;;9.48;1.88;;;10.60;99.90;;;;;;5066877;28;20485;-71
2023/03/24 06:58:50;;;;;;;11.85;2.47;;;10.40;99.90;;;;;;5053951;28;20051;-71
2023/03/24 07:01:16;;;;;;;11.93;2.10;;;10.40;99.90;;;;;;5043986;28;20124;-72
2023/03/24 07:03:42;;;;;;;7.40;1.42;;;10.50;99.90;;;;;;5061987;28;20041;-72
2023/03/24 07:06:08;;;;;;;5.80;1.10;;;10.60;99.90;;;;;;5053523;28;20036;-72
2023/03/24 07:08:34;;;;;;;7.30;1.38;;;10.70;99.90;;;;;;5057999;28;20473;-72
2023/03/24 07:11:01;;;;;;;8.70;1.95;;;10.70;99.90;;;;;;5074025;28;20040;-72
2023/03/24 07:13:27;;;;;;;7.55;1.67;;;10.70;99.90;;;;;;5056519;28;20091;-72
2023/03/24 07:15:52;;;;;;;11.75;2.03;;;10.60;99.90;;;;;;5066748;28;20478;-72
2023/03/24 07:18:18;;;;;;;11.77;2.08;;;10.70;99.90;;;;;;5061672;28;20124;-72
2023/03/24 07:20:44;;;;;;;5.22;1.30;;;10.50;99.90;;;;;;5073017;28;20041;-72
2023/03/24 07:23:10;;;;;;;6.55;1.30;;;10.60;99.90;;;;;;5046751;28;20083;-73
2023/03/24 07:25:36;;;;;;;9.50;1.67;;;10.70;99.90;;;;;;5087203;28;20040;-72
2023/03/24 07:28:01;;;;;;;10.07;1.50;;;10.70;99.90;;;;;;5054399;28;20440;-71
2023/03/24 07:30:27;;;;;;;13.13;2.20;;;10.70;99.90;;;;;;5065695;28;20094;-71
2023/03/24 07:32:55;;;;;;;7.97;1.70;;;10.60;99.90;;;;;;5072058;28;20029;-72
2023/03/24 07:35:21;;;;;;;16.52;1.85;;;10.60;99.90;;;;;;5072078;28;20047;-72
2023/03/24 07:37:48;;;;;;;15.73;2.20;;;10.60;99.90;;;;;;5048191;28;20416;-73
2023/03/24 07:40:14;;;;;;;11.50;2.35;;;10.60;99.90;;;;;;5064762;28;20523;-72
2023/03/24 07:42:41;;;;;;;9.00;1.58;;;10.60;99.90;;;;;;5055525;28;20040;-72
2023/03/24 07:45:09;;;;;;;14.77;2.33;;;10.70;99.90;;;;;;5067470;28;20037;-72
2023/03/24 07:47:35;;;;;;;14.80;2.75;;;10.70;99.90;;;;;;5072037;28;20036;-72
2023/03/24 07:50:03;;;;;;;17.45;2.60;;;10.70;99.90;;;;;;5069355;28;20056;-72
2023/03/24 07:52:29;;;;;;;15.48;2.92;;;10.70;99.90;;;;;;5052716;28;20045;-72
2023/03/24 07:54:55;;;;;;;11.13;2.22;;;10.70;99.90;;;;;;5047083;28;20037;-72
2023/03/24 07:57:21;;;;;;;12.02;2.42;;;10.70;99.90;;;;;;5076838;28;20040;-73
2023/03/24 07:59:47;;;;;;;10.20;1.90;;;10.80;99.90;;;;;;5070740;28;20052;-72
2023/03/24 08:02:18;;;;;;;13.20;2.65;;;11.00;99.90;;;;;;5052896;28;20044;-73
2023/03/24 08:04:43;;;;;;;13.85;2.92;;;11.00;99.90;;;;;;5045184;28;20041;-72
2023/03/24 08:07:11;;;;;;;8.40;1.55;;;10.90;99.90;;;;;;5051562;28;20044;-72
2023/03/24 08:09:36;;;;;;;16.90;2.72;;;11.00;99.90;;;;;;5069417;28;20041;-72
2023/03/24 08:12:02;;;;;;;14.98;2.55;;;11.00;99.90;;;;;;5047046;28;20033;-72
2023/03/24 08:14:28;;;;;;;15.55;2.90;;;10.80;99.90;;;;;;5048389;28;20075;-72
2023/03/24 08:16:53;;;;;;;16.20;2.65;;;10.80;99.90;;;;;;5062422;28;20029;-72
2023/03/24 08:19:19;;;;;;;16.10;3.15;;;10.80;99.90;;;;;;5037992;28;20048;-72
2023/03/24 08:21:45;;;;;;;13.13;3.10;;;10.70;99.90;;;;;;5066001;28;20037;-72
2023/03/24 08:24:10;;;;;;;13.80;2.70;;;10.70;99.90;;;;;;5061849;28;20123;-72
2023/03/24 08:26:36;;;;;;;16.25;3.20;;;10.70;99.90;;;;;;5048361;28;20037;-72
2023/03/24 08:29:02;;;;;;;16.50;2.90;;;10.80;99.90;;;;;;5055829;28;20033;-70
2023/03/24 08:31:35;;;;;;;15.30;2.67;;;10.90;99.90;;;;;;5051134;28;20544;-70
2023/03/24 08:34:03;;;;;;;18.20;2.70;;;10.90;99.90;;;;;;5056757;28;20043;-70
2023/03/24 08:36:29;;;;;;;12.63;2.40;;;10.90;99.90;;;;;;5035413;28;20045;-70
2023/03/24 08:38:55;;;;;;;13.77;2.95;;;11.20;99.90;;;;;;5052776;28;20049;-70
2023/03/24 08:41:33;;;;;;;15.32;2.90;;;11.30;99.90;;;;;;5054556;28;20120;-70
2023/03/24 08:44:02;;;;;;;16.40;2.78;;;11.20;99.90;;;;;;5042787;28;20098;-71
2023/03/24 08:46:29;;;;;;;17.80;3.88;;;11.20;99.90;;;;;;5043737;28;20072;-71
2023/03/24 08:48:56;;;;;;;13.88;2.30;;;11.30;99.90;;;;;;5054210;28;20037;-70
2023/03/24 08:51:22;;;;;;;14.20;2.63;;;11.40;99.90;;;;;;5069419;28;20128;-70
2023/03/24 08:53:50;;;;;;;13.00;2.33;;;11.70;99.90;;;;;;5050676;28;20127;-71
2023/03/24 08:56:15;;;;;;;18.38;3.10;;;11.80;99.90;;;;;;5078963;28;20037;-71
2023/03/24 08:58:41;;;;;;;15.60;2.17;;;11.70;99.90;;;;;;5084986;28;20463;-71
2023/03/24 09:01:07;;;;;;;13.13;2.15;;;11.90;99.90;;;;;;5039559;28;20141;-72
2023/03/24 09:03:34;;;;;;;13.07;2.05;;;11.90;99.90;;;;;;5062366;28;20040;-72
2023/03/24 09:06:00;;;;;;;16.95;2.97;;;11.70;99.90;;;;;;5056008;28;20076;-71
2023/03/24 09:08:26;;;;;;;14.82;3.22;;;11.60;99.90;;;;;;5050581;28;20060;-71
2023/03/24 09:10:52;;;;;;;13.38;1.92;;;11.70;99.90;;;;;;5050408;28;20037;-71
2023/03/24 09:13:18;;;;;;;17.88;2.42;;;11.70;99.90;;;;;;5043028;28;20087;-71
2023/03/24 09:15:52;;;;;;;14.65;3.10;;;11.80;99.90;;;;;;5062076;28;20451;-71
2023/03/24 09:18:20;;;;;;;16.00;3.08;;;11.90;99.90;;;;;;5037885;28;20083;-71
2023/03/24 09:20:46;;;;;;;11.30;2.25;;;11.70;99.90;;;;;;5060855;28;20451;-72
2023/03/24 09:23:13;;;;;;;14.57;2.55;;;11.80;99.90;;;;;;5034559;28;20124;-71
2023/03/24 09:25:38;;;;;;;17.42;3.47;;;11.80;99.90;;;;;;5066329;28;20060;-72
2023/03/24 09:28:05;;;;;;;13.65;2.45;;;12.00;99.90;;;;;;5050348;28;20040;-71
2023/03/24 09:30:31;;;;;;;13.75;2.45;;;12.10;99.90;;;;;;5051261;28;20120;-71
2023/03/24 09:32:57;;;;;;;14.48;2.22;;;12.30;99.90;;;;;;5066121;28;20040;-71
2023/03/24 09:35:27;;;;;;;17.65;3.70;;;12.40;99.90;;;;;;5046968;28;20044;-72
2023/03/24 09:37:54;;;;;;;13.68;2.45;;;12.40;99.90;;;;;;5051945;28;20033;-72
2023/03/24 09:40:28;;;;;;;15.30;2.90;;;12.50;99.90;;;;;;5047022;28;20547;-71
2023/03/24 09:43:06;;;;;;;15.50;3.10;;;12.40;99.90;;;;;;5058874;28;20041;-71
2023/03/24 09:45:39;;;;;;;9.60;1.88;;;12.50;99.90;;;;;;5053009;28;20036;-71
2023/03/24 09:48:12;;;;;;;12.32;2.47;;;12.70;99.90;;;;;;5064885;28;20029;-71
2023/03/24 09:50:44;;;;;;;11.00;2.30;;;12.70;99.90;;;;;;5051350;28;20057;-71
2023/03/24 09:53:38;;;;;;;14.27;2.97;;;12.60;99.90;;;;;;5054062;28;20046;-72
2023/03/24 09:56:12;;;;;;;15.90;2.25;;;12.50;99.90;;;;;;5048533;28;20515;-72
2023/03/24 09:58:40;;;;;;;16.33;2.65;;;12.20;99.90;;;;;;5067963;28;20511;-69
2023/03/24 10:01:13;;;;;;;16.05;3.00;;;12.10;99.90;;;;;;5050883;28;20052;-70
2023/03/24 10:03:39;;;;;;;15.77;2.53;;;12.10;99.90;;;;;;5034244;28;20408;-70
2023/03/24 10:06:06;;;;;;;13.77;2.55;;;11.90;99.90;;;;;;5063821;28;20480;-70
2023/03/24 10:08:38;;;;;;;11.82;2.60;;;11.80;99.90;;;;;;5049503;28;20049;-69
2023/03/24 10:11:09;;;;;;;;;;;12.00;99.90;;;;;;5044968;28;20116;-70
2023/03/24 10:14:00;;;;;;;15.88;3.20;;;12.00;99.90;;;;;;5034631;28;20055;-69
2023/03/24 10:16:37;;;;;;;15.77;3.17;;;12.30;99.90;;;;;;5051599;28;20048;-69
2023/03/24 10:19:18;;;;;;;13.77;2.53;;;12.50;99.90;;;;;;5053318;28;20439;-70
2023/03/24 10:21:59;;;;;;;9.77;2.33;;;12.50;99.90;;;;;;5042680;28;20044;-72
2023/03/24 10:24:53;;;;;;;14.50;2.10;;;12.70;99.90;;;;;;5079416;28;20041;-71
2023/03/24 10:27:42;;;;;;;13.15;2.13;;;12.90;99.90;;;;;;5052901;28;20041;-70
2023/03/24 10:30:15;;;;;;;12.60;2.03;;;12.90;99.90;;;;;;5063604;28;20123;-69
2023/03/24 10:32:42;;;;;;;12.18;2.30;;;13.10;99.90;;;;;;5072093;28;20032;-69
2023/03/24 10:35:23;;;;;;;13.57;2.55;;;13.10;99.90;;;;;;5060957;28;20044;-69
2023/03/24 10:37:50;;;;;;;10.00;2.53;;;13.10;99.90;;;;;;5069849;28;20048;-69
2023/03/24 10:40:24;;;;;;;12.43;2.25;;;13.10;99.90;;;;;;5068295;28;20527;-69
2023/03/24 10:42:49;;;;;;;7.63;2.17;;;13.20;99.90;;;;;;5073063;28;20493;-69
2023/03/24 10:45:27;;;;;;;17.40;3.25;;;13.40;99.90;;;;;;5053014;28;20045;-69
2023/03/24 10:47:57;;;;;;;13.60;2.30;;;13.40;99.90;;;;;;5058571;28;20037;-70
2023/03/24 10:50:26;;;;;;;11.82;2.38;;;13.30;99.90;;;;;;5051569;28;20048;-70
2023/03/24 10:52:52;;;;;;;9.85;2.53;;;13.00;99.90;;;;;;5073093;28;20443;-70
2023/03/24 10:55:22;;;;;;;13.10;2.25;;;12.80;99.90;;;;;;5063868;28;20553;-69
2023/03/24 10:57:53;;;;;;;14.13;2.63;;;12.80;99.90;;;;;;5054194;28;20037;-69
2023/03/24 11:00:28;;;;;;;14.13;2.47;;;12.70;99.90;;;;;;5037388;28;20384;-69
2023/03/24 11:03:03;;;;;;;13.43;2.50;;;12.80;99.90;;;;;;5036586;28;20048;-70
2023/03/24 11:05:36;;;;;;;9.68;1.75;;;12.90;99.90;;;;;;5054053;28;20405;-70
2023/03/24 11:08:13;;;;;;;;;;;13.00;99.90;;;;;;5059999;28;20186;-69
2023/03/24 11:10:39;;;;;;;13.77;2.30;;;13.00;99.90;;;;;;5055570;28;19928;-71
2023/03/24 11:13:15;;;;;;;10.48;1.98;;;12.90;99.90;;;;;;5057508;28;20037;-70
2023/03/24 11:16:06;;;;;;;7.53;1.67;;;12.80;99.90;;;;;;5053200;28;20036;-70
2023/03/24 11:18:32;;;;;;;15.00;2.17;;;12.90;99.90;;;;;;5041480;28;20559;-70
2023/03/24 11:21:03;;;;;;;12.82;2.30;;;13.00;99.90;;;;;;5054645;28;20044;-70
2023/03/24 11:23:44;;;;;;;10.77;2.40;;;12.80;99.90;;;;;;5036391;28;20051;-70
2023/03/24 11:26:30;;;;;;;10.83;2.20;;;12.60;99.90;;;;;;5040455;28;20036;-70
2023/03/24 11:29:12;;;;;;;13.88;3.13;;;12.60;99.90;;;;;;5050027;28;20039;-70
2023/03/24 11:31:39;;;;;;;13.57;2.38;;;12.50;99.90;;;;;;5044667;28;20615;-70
2023/03/24 11:34:12;;;;;;;14.60;2.25;;;12.50;99.90;;;;;;5072010;28;20059;-69
2023/03/24 11:36:46;;;;;;;9.15;1.58;;;12.50;99.90;;;;;;5077369;28;20040;-70
2023/03/24 11:39:16;;;;;;;11.80;2.65;;;12.40;99.90;;;;;;5082292;28;20043;-70
2023/03/24 11:42:02;;;;;;;13.18;2.30;;;12.70;99.90;;;;;;5058005;28;20041;-69
2023/03/24 11:44:31;;;;;;;10.63;2.10;;;13.00;99.90;;;;;;5052374;28;20090;-70
2023/03/24 11:47:01;;;;;;;10.60;2.25;;;13.10;99.90;;;;;;5042368;28;21087;-70
2023/03/24 11:49:30;;;;;;;12.32;2.15;;;13.30;99.90;;;;;;5052235;28;20037;-70
2023/03/24 11:51:56;;;;;;;9.73;1.77;;;13.30;99.90;;;;;;5062011;28;20521;-70
2023/03/24 11:54:29;;;;;;;10.05;1.88;;;13.30;99.90;;;;;;5053205;28;20413;-70
2023/03/24 11:57:03;;;;;;;10.55;1.63;;;13.50;99.90;;;;;;5061358;28;20561;-71
2023/03/24 11:59:50;;;;;;;12.52;2.20;;;13.60;99.90;;;;;;5049310;28;20041;-70
2023/03/24 12:03:07;;;;;;;9.07;2.28;;;13.50;99.90;;;;;;5051994;28;20041;-69
2023/03/24 12:05:38;;;;;;;11.38;1.85;;;13.40;99.90;;;;;;5057997;28;20522;-70
2023/03/24 12:08:27;;;;;;;10.82;2.08;;;13.50;99.90;;;;;;5068600;28;20037;-70
2023/03/24 12:11:19;;;;;;;10.60;2.20;;;13.60;99.90;;;;;;5046915;28;20052;-70
2023/03/24 12:13:48;;;;;;;11.05;2.30;;;13.70;99.90;;;;;;5061280;28;20051;-70
2023/03/24 12:16:42;;;;;;;11.60;2.15;;;13.60;99.90;;;;;;5058971;28;20437;-70
2023/03/24 12:19:52;;;;;;;14.82;2.42;;;13.30;99.90;;;;;;5059991;28;20063;-70
2023/03/24 12:22:52;;;;;;;11.30;2.20;;;13.20;99.90;;;;;;5052026;28;20059;-70
2023/03/24 12:25:35;;;;;;;11.68;2.40;;;13.00;99.90;;;;;;5060125;28;20044;-70
2023/03/24 12:28:10;;;;;;;14.95;2.45;;;13.10;99.90;;;;;;5051991;28;20041;-70
2023/03/24 12:30:58;;;;;;;11.07;2.03;;;13.00;99.90;;;;;;5051397;28;20486;-70
2023/03/24 12:33:30;;;;;;;10.75;2.25;;;13.20;99.90;;;;;;5054374;28;20044;-70
2023/03/24 12:36:09;;;;;;;11.35;1.95;;;13.30;99.90;;;;;;5063878;28;20406;-70
2023/03/24 12:38:41;;;;;;;13.02;2.30;;;13.20;99.90;;;;;;5035604;28;20087;-70
2023/03/24 12:41:39;;;;;;;12.95;2.08;;;13.60;99.90;;;;;;5064697;28;20366;-70
2023/03/24 12:44:16;;;;;;;13.60;2.50;;;13.50;99.90;;;;;;5034771;28;20041;-69
2023/03/24 12:47:12;;;;;;;11.95;2.08;;;13.60;99.90;;;;;;5049156;28;20041;-70
2023/03/24 12:49:52;;;;;;;10.77;1.92;;;13.40;99.90;;;;;;5051829;28;20095;-70
2023/03/24 12:52:42;;;;;;;7.43;1.70;;;13.10;99.90;;;;;;5048620;28;20033;-70
2023/03/24 12:55:13;;;;;;;10.15;1.80;;;13.00;99.90;;;;;;5051562;28;20053;-70
2023/03/24 12:58:08;;;;;;;11.13;1.63;;;12.80;99.90;;;;;;5061704;28;20044;-70
2023/03/24 13:00:39;;;;;;;8.52;1.60;;;12.80;99.90;;;;;;5064774;28;20052;-70
2023/03/24 13:03:20;;;;;;;11.00;1.87;;;12.90;99.90;;;;;;5057702;28;20111;-71
2023/03/24 13:05:51;;;;;;;8.07;1.27;;;13.00;99.90;;;;;;5055242;28;20295;-71
2023/03/24 13:08:31;;;;;;;12.03;2.00;;;13.30;99.90;;;;;;5071685;28;20510;-71